Time;durP1;ratioP1;P1;durP2;ratioP2;P2;SDS_P1;SDS_P2;PMS_P1;PMS_P2;Temp;Humidity;BMP_temperature;BMP_pressure;BME280_temperature;BME280_humidity;BME280_pressure;Samples;Min_cycle;Max_cycle;Signal;HPM_P1;HPM_P2
2021/03/16 00:02:31;;;;;;;1.22;1.11;;;;;;;19.47;44.05;100646.81;;;;-52
2021/03/16 00:05:31;;;;;;;1.35;1.20;;;;;;;19.46;44.02;100656.73;;;;-52
2021/03/16 00:08:31;;;;;;;1.18;1.10;;;;;;;19.44;44.05;100661.80;;;;-57
2021/03/16 00:11:31;;;;;;;1.31;1.20;;;;;;;19.42;44.08;100665.85;;;;-50
2021/03/16 00:14:31;;;;;;;1.32;1.16;;;;;;;19.39;44.07;100671.84;;;;-57
2021/03/16 00:17:31;;;;;;;1.20;1.10;;;;;;;19.37;44.07;100666.05;;;;-56
2021/03/16 00:20:31;;;;;;;1.57;1.13;;;;;;;19.36;44.08;100670.25;;;;-56
2021/03/16 00:23:31;;;;;;;1.23;1.13;;;;;;;19.34;44.10;100670.18;;;;-58
2021/03/16 00:26:31;;;;;;;1.26;1.16;;;;;;;19.31;44.05;100675.01;;;;-57
2021/03/16 00:29:31;;;;;;;1.36;1.20;;;;;;;19.29;44.08;100673.44;;;;-50
2021/03/16 00:32:31;;;;;;;1.49;1.19;;;;;;;19.28;44.08;100675.80;;;;-51
2021/03/16 00:35:31;;;;;;;1.21;1.11;;;;;;;19.25;44.10;100677.95;;;;-51
2021/03/16 00:38:31;;;;;;;2.03;1.35;;;;;;;19.24;44.09;100688.27;;;;-51
2021/03/16 00:41:31;;;;;;;1.15;1.04;;;;;;;19.22;44.11;100690.12;;;;-51
2021/03/16 00:44:31;;;;;;;1.17;1.10;;;;;;;19.20;44.12;100690.42;;;;-57
2021/03/16 00:47:31;;;;;;;1.59;1.19;;;;;;;19.18;44.16;100699.98;;;;-57
2021/03/16 00:50:31;;;;;;;1.34;1.19;;;;;;;19.16;44.12;100702.15;;;;-57
2021/03/16 00:53:31;;;;;;;1.30;1.20;;;;;;;19.15;44.11;100706.67;;;;-59
2021/03/16 00:56:31;;;;;;;1.53;1.18;;;;;;;19.14;44.15;100708.06;;;;-57
2021/03/16 00:59:31;;;;;;;2.05;1.27;;;;;;;19.12;44.14;100711.94;;;;-57
2021/03/16 01:02:31;;;;;;;1.19;1.07;;;;;;;19.11;44.16;100714.27;;;;-56
2021/03/16 01:05:31;;;;;;;1.68;1.23;;;;;;;19.10;44.14;100719.88;;;;-57
2021/03/16 01:08:31;;;;;;;1.85;1.19;;;;;;;19.08;44.14;100721.06;;;;-56
2021/03/16 01:11:31;;;;;;;1.01;1.01;;;;;;;19.06;44.20;100723.64;;;;-57
2021/03/16 01:14:31;;;;;;;1.32;1.20;;;;;;;19.04;44.23;100726.38;;;;-57
2021/03/16 01:17:31;;;;;;;1.20;1.10;;;;;;;19.03;44.21;100725.41;;;;-51
2021/03/16 01:20:31;;;;;;;1.25;1.12;;;;;;;19.02;44.25;100724.56;;;;-50
2021/03/16 01:23:31;;;;;;;1.20;1.10;;;;;;;19.00;44.21;100725.27;;;;-51
2021/03/16 01:26:31;;;;;;;1.71;1.26;;;;;;;18.99;44.24;100728.52;;;;-52
2021/03/16 01:29:31;;;;;;;1.26;1.16;;;;;;;18.96;44.26;100727.16;;;;-52
2021/03/16 01:32:31;;;;;;;1.28;1.18;;;;;;;18.96;44.25;100731.06;;;;-52
2021/03/16 01:35:31;;;;;;;1.20;1.10;;;;;;;18.94;44.27;100725.11;;;;-52
2021/03/16 01:38:31;;;;;;;1.20;1.10;;;;;;;18.93;44.25;100725.59;;;;-52
2021/03/16 01:41:31;;;;;;;1.21;1.11;;;;;;;18.92;44.26;100724.35;;;;-52
2021/03/16 01:44:31;;;;;;;1.26;1.16;;;;;;;18.90;44.31;100723.42;;;;-54
2021/03/16 01:47:31;;;;;;;1.61;1.31;;;;;;;18.88;44.31;100722.38;;;;-54
2021/03/16 01:50:31;;;;;;;1.38;1.27;;;;;;;18.88;44.30;100719.99;;;;-52
2021/03/16 01:53:31;;;;;;;1.12;1.04;;;;;;;18.86;44.33;100714.11;;;;-52
2021/03/16 01:56:31;;;;;;;1.21;1.10;;;;;;;18.86;44.30;100713.47;;;;-52
2021/03/16 01:59:31;;;;;;;1.21;1.10;;;;;;;18.84;44.32;100717.83;;;;-52
2021/03/16 02:02:31;;;;;;;1.25;1.15;;;;;;;18.82;44.34;100713.04;;;;-54
2021/03/16 02:05:31;;;;;;;1.31;1.20;;;;;;;18.81;44.39;100711.22;;;;-54
2021/03/16 02:08:31;;;;;;;1.22;1.11;;;;;;;18.80;44.34;100715.77;;;;-52
2021/03/16 02:11:31;;;;;;;1.99;1.20;;;;;;;18.78;44.40;100718.15;;;;-52
2021/03/16 02:14:31;;;;;;;1.67;1.17;;;;;;;18.77;44.33;100716.66;;;;-52
2021/03/16 02:17:31;;;;;;;1.05;1.01;;;;;;;18.77;44.35;100722.17;;;;-52
2021/03/16 02:20:31;;;;;;;1.18;1.08;;;;;;;18.75;44.34;100723.28;;;;-52
2021/03/16 02:23:31;;;;;;;1.57;1.21;;;;;;;18.74;44.36;100730.08;;;;-57
2021/03/16 02:26:31;;;;;;;1.23;1.13;;;;;;;18.73;44.35;100737.22;;;;-56
2021/03/16 02:29:31;;;;;;;1.23;1.07;;;;;;;18.71;44.35;100737.11;;;;-56
2021/03/16 02:32:31;;;;;;;1.41;1.10;;;;;;;18.70;44.36;100740.84;;;;-54
2021/03/16 02:35:31;;;;;;;1.11;1.01;;;;;;;18.69;44.38;100744.06;;;;-53
2021/03/16 02:38:31;;;;;;;1.04;0.98;;;;;;;18.67;44.39;100747.84;;;;-53
2021/03/16 02:41:31;;;;;;;1.31;1.03;;;;;;;18.66;44.39;100759.54;;;;-56
2021/03/16 02:44:31;;;;;;;1.30;1.20;;;;;;;18.66;44.39;100762.95;;;;-56
2021/03/16 02:47:31;;;;;;;1.25;1.11;;;;;;;18.63;44.38;100752.58;;;;-51
2021/03/16 02:50:31;;;;;;;1.26;1.14;;;;;;;18.63;44.38;100756.97;;;;-54
2021/03/16 02:53:31;;;;;;;1.20;1.10;;;;;;;18.63;44.35;100768.17;;;;-51
2021/03/16 02:56:31;;;;;;;1.27;1.18;;;;;;;18.61;44.37;100767.25;;;;-51
2021/03/16 02:59:31;;;;;;;1.39;1.23;;;;;;;18.59;44.41;100764.48;;;;-51
2021/03/16 03:02:31;;;;;;;1.79;1.30;;;;;;;18.59;44.40;100770.48;;;;-51
2021/03/16 03:05:31;;;;;;;1.30;1.15;;;;;;;18.57;44.43;100778.98;;;;-58
2021/03/16 03:08:31;;;;;;;1.16;1.10;;;;;;;18.57;44.43;100783.85;;;;-52
2021/03/16 03:11:32;;;;;;;1.16;1.06;;;;;;;18.56;44.42;100791.78;;;;-52
2021/03/16 03:14:31;;;;;;;1.29;1.09;;;;;;;18.55;44.44;100796.16;;;;-52
2021/03/16 03:17:31;;;;;;;1.60;1.23;;;;;;;18.55;44.46;100795.88;;;;-52
2021/03/16 03:20:31;;;;;;;1.20;1.10;;;;;;;18.53;44.47;100798.23;;;;-52
2021/03/16 03:23:32;;;;;;;1.17;0.95;;;;;;;18.53;44.48;100805.30;;;;-52
2021/03/16 03:26:31;;;;;;;1.29;1.14;;;;;;;18.51;44.45;100810.05;;;;-52
2021/03/16 03:29:31;;;;;;;1.34;1.14;;;;;;;18.51;44.43;100806.53;;;;-52
2021/03/16 03:32:31;;;;;;;1.18;1.07;;;;;;;18.49;44.47;100808.31;;;;-52
2021/03/16 03:35:31;;;;;;;1.30;1.01;;;;;;;18.48;44.45;100810.31;;;;-52
2021/03/16 03:38:31;;;;;;;1.50;1.17;;;;;;;18.47;44.47;100811.73;;;;-52
2021/03/16 03:41:31;;;;;;;1.18;1.08;;;;;;;18.46;44.49;100813.45;;;;-52
2021/03/16 03:44:31;;;;;;;1.13;0.98;;;;;;;18.45;44.51;100811.91;;;;-52
2021/03/16 03:47:31;;;;;;;1.20;1.09;;;;;;;18.44;44.51;100810.16;;;;-50
2021/03/16 03:50:31;;;;;;;1.39;1.15;;;;;;;18.44;44.50;100812.03;;;;-52
2021/03/16 03:53:31;;;;;;;1.05;1.01;;;;;;;18.42;44.52;100822.47;;;;-52
2021/03/16 03:56:31;;;;;;;1.61;1.18;;;;;;;18.42;44.49;100829.93;;;;-52
2021/03/16 03:59:31;;;;;;;1.21;1.11;;;;;;;18.41;44.53;100831.80;;;;-52
2021/03/16 04:02:31;;;;;;;1.20;1.10;;;;;;;18.40;44.54;100832.25;;;;-55
2021/03/16 04:05:31;;;;;;;1.47;1.05;;;;;;;18.40;44.49;100836.63;;;;-52
2021/03/16 04:08:31;;;;;;;2.53;1.10;;;;;;;18.38;44.51;100841.55;;;;-52
2021/03/16 04:11:31;;;;;;;1.09;1.04;;;;;;;18.37;44.53;100845.69;;;;-52
2021/03/16 04:14:31;;;;;;;1.50;1.19;;;;;;;18.36;44.52;100840.54;;;;-52
2021/03/16 04:17:31;;;;;;;1.61;1.14;;;;;;;18.35;44.52;100837.70;;;;-51
2021/03/16 04:20:31;;;;;;;1.20;1.10;;;;;;;18.34;44.54;100835.39;;;;-51
2021/03/16 04:23:32;;;;;;;1.09;1.00;;;;;;;18.33;44.53;100842.86;;;;-56
2021/03/16 04:26:31;;;;;;;1.05;1.01;;;;;;;18.32;44.50;100842.73;;;;-56
2021/03/16 04:29:31;;;;;;;1.13;1.04;;;;;;;18.30;44.51;100843.63;;;;-53
2021/03/16 04:32:31;;;;;;;1.20;1.10;;;;;;;18.30;44.56;100850.00;;;;-50
2021/03/16 04:35:31;;;;;;;0.98;0.98;;;;;;;18.29;44.56;100847.08;;;;-51
2021/03/16 04:38:31;;;;;;;1.35;1.15;;;;;;;18.29;44.52;100847.41;;;;-50
2021/03/16 04:41:31;;;;;;;1.35;1.25;;;;;;;18.28;44.52;100849.81;;;;-51
2021/03/16 04:44:31;;;;;;;1.06;0.99;;;;;;;18.26;44.48;100854.34;;;;-51
2021/03/16 04:47:31;;;;;;;1.49;0.95;;;;;;;18.26;44.55;100857.19;;;;-51
2021/03/16 04:50:31;;;;;;;1.47;1.19;;;;;;;18.25;44.55;100860.97;;;;-50
2021/03/16 04:53:31;;;;;;;1.91;1.09;;;;;;;18.24;44.52;100857.55;;;;-50
2021/03/16 04:56:31;;;;;;;1.31;1.15;;;;;;;18.24;44.53;100864.09;;;;-52
2021/03/16 04:59:31;;;;;;;1.38;1.18;;;;;;;18.23;44.54;100863.92;;;;-52
2021/03/16 05:02:31;;;;;;;1.01;0.95;;;;;;;18.23;44.50;100866.84;;;;-52
2021/03/16 05:05:31;;;;;;;1.45;1.10;;;;;;;18.22;44.51;100873.79;;;;-52
2021/03/16 05:08:31;;;;;;;1.31;1.21;;;;;;;18.21;44.49;100879.55;;;;-52
2021/03/16 05:11:31;;;;;;;1.27;1.00;;;;;;;18.20;44.50;100885.55;;;;-52
2021/03/16 05:14:31;;;;;;;1.03;0.98;;;;;;;18.20;44.51;100894.87;;;;-52
2021/03/16 05:17:31;;;;;;;1.03;0.95;;;;;;;18.19;44.54;100895.58;;;;-52
2021/03/16 05:20:31;;;;;;;1.13;1.04;;;;;;;18.18;44.53;100898.66;;;;-52
2021/03/16 05:23:31;;;;;;;1.04;0.95;;;;;;;18.17;44.55;100901.45;;;;-52
2021/03/16 05:26:31;;;;;;;1.06;0.99;;;;;;;18.17;44.59;100901.05;;;;-52
2021/03/16 05:29:31;;;;;;;1.09;1.02;;;;;;;18.16;44.54;100907.02;;;;-52
2021/03/16 05:32:31;;;;;;;1.19;1.01;;;;;;;18.15;44.56;100908.96;;;;-52
2021/03/16 05:35:31;;;;;;;1.39;1.20;;;;;;;18.14;44.51;100912.13;;;;-52
2021/03/16 05:38:31;;;;;;;1.39;1.19;;;;;;;18.14;44.57;100917.55;;;;-52
2021/03/16 05:41:31;;;;;;;1.00;1.00;;;;;;;18.13;44.54;100921.81;;;;-52
2021/03/16 05:44:31;;;;;;;1.04;0.94;;;;;;;18.12;44.55;100916.47;;;;-52
2021/03/16 05:47:31;;;;;;;1.41;1.10;;;;;;;18.11;44.56;100922.59;;;;-52
2021/03/16 05:50:31;;;;;;;1.09;1.03;;;;;;;18.11;44.56;100930.30;;;;-52
2021/03/16 05:53:31;;;;;;;1.27;1.17;;;;;;;18.10;44.57;100932.40;;;;-52
2021/03/16 05:56:31;;;;;;;0.89;0.89;;;;;;;18.10;44.57;100933.53;;;;-52
2021/03/16 05:59:31;;;;;;;1.30;1.15;;;;;;;18.08;44.58;100930.73;;;;-52
2021/03/16 06:02:31;;;;;;;1.30;1.13;;;;;;;18.07;44.59;100932.20;;;;-52
2021/03/16 06:05:31;;;;;;;1.30;1.17;;;;;;;18.07;44.58;100937.84;;;;-52
2021/03/16 06:08:31;;;;;;;1.13;1.01;;;;;;;18.07;44.56;100941.97;;;;-52
2021/03/16 06:11:31;;;;;;;1.51;1.05;;;;;;;18.06;44.58;100946.27;;;;-52
2021/03/16 06:14:31;;;;;;;1.60;1.09;;;;;;;18.06;44.61;100951.38;;;;-52
2021/03/16 06:17:31;;;;;;;1.20;1.10;;;;;;;18.06;44.62;100953.65;;;;-52
2021/03/16 06:20:31;;;;;;;1.25;1.15;;;;;;;18.06;44.65;100953.00;;;;-53
2021/03/16 06:23:31;;;;;;;1.14;1.04;;;;;;;18.06;44.66;100956.56;;;;-52
2021/03/16 06:26:32;;;;;;;1.13;1.00;;;;;;;18.07;44.64;100961.28;;;;-52
2021/03/16 06:29:31;;;;;;;1.08;1.01;;;;;;;18.08;44.59;100964.31;;;;-52
2021/03/16 06:32:31;;;;;;;1.33;1.10;;;;;;;18.10;44.63;100967.59;;;;-52
2021/03/16 06:35:31;;;;;;;1.15;1.00;;;;;;;18.11;44.62;100973.61;;;;-52
2021/03/16 06:38:31;;;;;;;1.41;1.11;;;;;;;18.13;44.68;100978.03;;;;-52
2021/03/16 06:41:31;;;;;;;1.07;1.00;;;;;;;18.15;44.69;100983.75;;;;-52
2021/03/16 06:44:31;;;;;;;0.91;0.91;;;;;;;18.18;44.65;100981.72;;;;-52
2021/03/16 06:47:31;;;;;;;1.33;1.00;;;;;;;18.21;44.73;100989.63;;;;-52
2021/03/16 06:50:31;;;;;;;1.03;0.99;;;;;;;18.25;44.65;100993.45;;;;-52
2021/03/16 06:53:31;;;;;;;1.08;0.99;;;;;;;18.29;44.66;100998.48;;;;-52
2021/03/16 06:56:31;;;;;;;1.16;1.06;;;;;;;18.32;44.65;100999.91;;;;-52
2021/03/16 06:59:31;;;;;;;1.01;0.90;;;;;;;18.35;44.69;101005.41;;;;-52
2021/03/16 07:02:31;;;;;;;0.94;0.94;;;;;;;18.38;44.69;101011.62;;;;-52
2021/03/16 07:05:31;;;;;;;1.22;1.12;;;;;;;18.40;44.72;101017.51;;;;-52
2021/03/16 07:08:31;;;;;;;1.12;0.99;;;;;;;18.42;44.65;101018.52;;;;-52
2021/03/16 07:11:32;;;;;;;1.21;0.97;;;;;;;18.44;44.71;101018.89;;;;-52
2021/03/16 07:14:32;;;;;;;0.92;0.91;;;;;;;18.45;44.74;101027.09;;;;-52
2021/03/16 07:17:31;;;;;;;2.53;1.21;;;;;;;18.47;44.71;101025.22;;;;-61
2021/03/16 07:20:31;;;;;;;4.18;1.23;;;;;;;18.47;44.55;101037.71;;;;-61
2021/03/16 07:23:31;;;;;;;1.23;1.12;;;;;;;18.48;44.66;101038.85;;;;-60
2021/03/16 07:26:31;;;;;;;1.34;1.00;;;;;;;18.52;44.65;101047.78;;;;-61
2021/03/16 07:29:31;;;;;;;1.11;0.93;;;;;;;18.54;44.64;101047.82;;;;-61
2021/03/16 07:32:31;;;;;;;1.65;1.01;;;;;;;18.56;44.63;101050.30;;;;-61
2021/03/16 07:35:31;;;;;;;1.25;1.07;;;;;;;18.59;44.67;101060.59;;;;-61
2021/03/16 07:38:31;;;;;;;1.17;1.03;;;;;;;18.62;44.66;101067.95;;;;-61
2021/03/16 07:41:31;;;;;;;1.17;1.07;;;;;;;18.64;44.68;101078.46;;;;-60
2021/03/16 07:44:31;;;;;;;1.09;0.99;;;;;;;18.67;44.64;101080.61;;;;-60
2021/03/16 07:47:31;;;;;;;1.42;1.23;;;;;;;18.69;44.63;101073.76;;;;-54
2021/03/16 07:50:31;;;;;;;1.56;1.01;;;;;;;18.69;44.65;101079.44;;;;-53
2021/03/16 07:53:31;;;;;;;3.32;1.21;;;;;;;18.73;44.68;101085.28;;;;-53
2021/03/16 07:56:31;;;;;;;1.11;1.00;;;;;;;18.75;44.64;101083.05;;;;-55
2021/03/16 07:59:31;;;;;;;1.11;1.00;;;;;;;18.81;44.58;101090.18;;;;-56
2021/03/16 08:02:31;;;;;;;1.37;1.11;;;;;;;18.82;44.63;101089.81;;;;-60
2021/03/16 08:05:31;;;;;;;2.43;1.20;;;;;;;18.84;44.63;101094.73;;;;-54
2021/03/16 08:08:31;;;;;;;2.05;1.02;;;;;;;18.88;44.63;101099.23;;;;-52
2021/03/16 08:11:31;;;;;;;1.69;0.99;;;;;;;18.91;44.55;101106.05;;;;-53
2021/03/16 08:14:33;;;;;;;1.23;1.10;;;;;;;18.93;44.64;101104.87;;;;-52
2021/03/16 08:17:31;;;;;;;1.23;1.11;;;;;;;18.98;44.57;101110.16;;;;-54
2021/03/16 08:20:31;;;;;;;1.54;1.04;;;;;;;19.01;44.63;101112.42;;;;-54
2021/03/16 08:23:31;;;;;;;1.55;1.11;;;;;;;19.05;44.53;101108.35;;;;-54
2021/03/16 08:26:31;;;;;;;1.14;0.92;;;;;;;19.08;44.50;101105.55;;;;-60
2021/03/16 08:29:31;;;;;;;1.34;1.20;;;;;;;19.11;44.51;101100.83;;;;-60
2021/03/16 08:32:31;;;;;;;1.19;1.05;;;;;;;19.13;44.49;101101.08;;;;-55
2021/03/16 08:35:31;;;;;;;1.16;1.10;;;;;;;19.16;44.48;101104.31;;;;-52
2021/03/16 08:38:32;;;;;;;1.43;1.18;;;;;;;19.17;44.47;101102.08;;;;-52
2021/03/16 08:41:31;;;;;;;1.45;1.20;;;;;;;19.19;44.46;101106.14;;;;-52
2021/03/16 08:44:31;;;;;;;1.51;1.10;;;;;;;19.22;44.44;101108.49;;;;-56
2021/03/16 08:47:31;;;;;;;1.16;1.03;;;;;;;19.23;44.42;101110.36;;;;-60
2021/03/16 08:50:31;;;;;;;1.60;1.17;;;;;;;19.26;44.39;101117.58;;;;-60
2021/03/16 08:53:31;;;;;;;3.71;1.24;;;;;;;19.30;44.40;101113.97;;;;-57
2021/03/16 08:56:32;;;;;;;2.10;1.25;;;;;;;19.34;44.82;101116.80;;;;-55
2021/03/16 08:59:31;;;;;;;1.30;1.15;;;;;;;19.38;45.00;101128.25;;;;-51
2021/03/16 09:02:33;;;;;;;1.16;0.97;;;;;;;19.42;45.18;101125.56;;;;-55
2021/03/16 09:05:31;;;;;;;2.53;1.17;;;;;;;19.45;45.11;101120.51;;;;-54
2021/03/16 09:08:31;;;;;;;3.23;1.21;;;;;;;19.52;45.19;101123.54;;;;-48
2021/03/16 09:11:31;;;;;;;1.31;1.16;;;;;;;19.55;45.05;101128.00;;;;-47
2021/03/16 09:14:31;;;;;;;2.39;1.26;;;;;;;19.60;44.99;101126.28;;;;-55
2021/03/16 09:17:31;;;;;;;1.43;1.07;;;;;;;19.67;44.94;101125.48;;;;-51
2021/03/16 09:20:31;;;;;;;1.31;1.10;;;;;;;19.71;44.91;101127.70;;;;-51
2021/03/16 09:23:31;;;;;;;2.25;1.20;;;;;;;19.76;44.82;101127.96;;;;-52
2021/03/16 09:26:31;;;;;;;2.64;1.23;;;;;;;19.81;44.77;101133.96;;;;-53
2021/03/16 09:29:31;;;;;;;1.21;1.09;;;;;;;19.87;44.74;101139.51;;;;-49
2021/03/16 09:32:31;;;;;;;1.28;1.13;;;;;;;19.90;44.81;101138.44;;;;-48
2021/03/16 09:35:31;;;;;;;3.02;1.20;;;;;;;19.92;44.48;101137.16;;;;-50
2021/03/16 09:38:31;;;;;;;3.36;1.23;;;;;;;19.92;44.56;101139.11;;;;-54
2021/03/16 09:41:31;;;;;;;2.79;1.26;;;;;;;19.93;44.38;101139.93;;;;-52
2021/03/16 09:44:31;;;;;;;3.03;1.27;;;;;;;19.93;44.27;101135.45;;;;-55
2021/03/16 09:47:31;;;;;;;2.39;1.34;;;;;;;19.94;43.86;101133.99;;;;-58
2021/03/16 09:50:31;;;;;;;2.43;1.47;;;;;;;19.96;44.08;101134.02;;;;-54
2021/03/16 09:53:31;;;;;;;1.84;1.30;;;;;;;19.96;44.00;101135.00;;;;-57
2021/03/16 09:56:32;;;;;;;2.52;1.27;;;;;;;19.98;43.33;101131.28;;;;-58
2021/03/16 09:59:31;;;;;;;1.71;1.37;;;;;;;19.99;43.53;101130.18;;;;-57
2021/03/16 10:02:31;;;;;;;1.46;1.24;;;;;;;20.03;43.74;101126.74;;;;-54
2021/03/16 10:05:31;;;;;;;2.09;1.42;;;;;;;20.04;43.57;101126.50;;;;-56
2021/03/16 10:08:31;;;;;;;2.09;1.50;;;;;;;20.06;43.24;101122.45;;;;-54
2021/03/16 10:11:31;;;;;;;1.47;1.35;;;;;;;20.10;43.61;101123.90;;;;-51
2021/03/16 10:14:32;;;;;;;1.89;1.39;;;;;;;20.09;43.25;101122.60;;;;-64
2021/03/16 10:17:31;;;;;;;2.67;1.61;;;;;;;20.12;43.40;101122.71;;;;-51
2021/03/16 10:20:31;;;;;;;2.50;1.55;;;;;;;20.12;42.96;101126.38;;;;-49
2021/03/16 10:23:31;;;;;;;2.65;1.37;;;;;;;20.14;43.52;101126.48;;;;-46
2021/03/16 10:26:31;;;;;;;1.94;1.43;;;;;;;20.14;43.11;101132.02;;;;-52
2021/03/16 10:29:31;;;;;;;1.93;1.49;;;;;;;20.16;43.21;101125.86;;;;-58
2021/03/16 10:32:31;;;;;;;4.03;1.40;;;;;;;20.17;43.28;101124.91;;;;-47
2021/03/16 10:35:31;;;;;;;2.19;1.32;;;;;;;20.19;43.40;101131.10;;;;-55
2021/03/16 10:38:31;;;;;;;4.61;1.43;;;;;;;20.21;43.58;101125.52;;;;-50
2021/03/16 10:41:31;;;;;;;2.29;1.35;;;;;;;20.24;43.70;101123.86;;;;-51
2021/03/16 10:44:31;;;;;;;2.31;1.34;;;;;;;20.32;43.71;101124.38;;;;-51
2021/03/16 10:47:31;;;;;;;2.11;1.31;;;;;;;20.32;43.64;101122.75;;;;-51
2021/03/16 10:50:31;;;;;;;1.56;1.24;;;;;;;20.32;43.59;101121.61;;;;-48
2021/03/16 10:53:31;;;;;;;2.67;1.52;;;;;;;20.33;43.68;101123.23;;;;-54
2021/03/16 10:56:31;;;;;;;1.85;1.26;;;;;;;20.36;43.69;101121.27;;;;-57
2021/03/16 10:59:31;;;;;;;2.21;1.40;;;;;;;20.40;43.70;101118.68;;;;-49
2021/03/16 11:02:31;;;;;;;2.95;1.40;;;;;;;20.38;43.67;101119.30;;;;-60
2021/03/16 11:05:31;;;;;;;1.64;1.27;;;;;;;20.43;43.75;101115.80;;;;-60
2021/03/16 11:08:31;;;;;;;1.78;1.40;;;;;;;20.42;43.70;101119.88;;;;-62
2021/03/16 11:11:31;;;;;;;1.65;1.40;;;;;;;20.46;43.67;101115.59;;;;-52
2021/03/16 11:14:31;;;;;;;1.71;1.28;;;;;;;20.47;43.61;101120.83;;;;-51
2021/03/16 11:17:31;;;;;;;2.73;1.35;;;;;;;20.47;43.53;101120.25;;;;-50
2021/03/16 11:20:31;;;;;;;2.01;1.41;;;;;;;20.47;43.37;101122.21;;;;-50
2021/03/16 11:23:31;;;;;;;1.51;1.23;;;;;;;20.47;43.37;101129.78;;;;-55
2021/03/16 11:26:31;;;;;;;1.59;1.37;;;;;;;20.47;43.32;101124.08;;;;-50
2021/03/16 11:29:31;;;;;;;2.64;1.45;;;;;;;20.46;43.28;101127.17;;;;-55
2021/03/16 11:32:31;;;;;;;2.08;1.42;;;;;;;20.48;43.21;101122.16;;;;-52
2021/03/16 11:35:31;;;;;;;1.99;1.31;;;;;;;20.48;43.14;101125.55;;;;-52
2021/03/16 11:38:31;;;;;;;1.59;1.30;;;;;;;20.48;43.16;101121.50;;;;-52
2021/03/16 11:41:31;;;;;;;1.88;1.21;;;;;;;20.48;43.16;101117.52;;;;-50
2021/03/16 11:44:31;;;;;;;1.61;1.29;;;;;;;20.48;43.14;101115.69;;;;-50
2021/03/16 11:47:31;;;;;;;1.64;1.35;;;;;;;20.48;43.14;101115.40;;;;-52
2021/03/16 11:50:31;;;;;;;2.03;1.40;;;;;;;20.49;43.11;101119.22;;;;-52
2021/03/16 11:53:31;;;;;;;1.52;1.16;;;;;;;20.48;43.11;101123.38;;;;-55
2021/03/16 11:56:31;;;;;;;1.51;1.19;;;;;;;20.48;43.11;101117.16;;;;-55
2021/03/16 11:59:31;;;;;;;2.07;1.23;;;;;;;20.48;43.12;101116.70;;;;-50
2021/03/16 12:02:31;;;;;;;1.96;1.33;;;;;;;20.49;43.08;101114.26;;;;-50
2021/03/16 12:05:31;;;;;;;1.28;1.18;;;;;;;20.50;43.05;101110.34;;;;-50
2021/03/16 12:08:32;;;;;;;1.43;1.23;;;;;;;20.50;43.01;101104.56;;;;-50
2021/03/16 12:11:31;;;;;;;2.16;1.30;;;;;;;20.50;43.04;101099.92;;;;-50
2021/03/16 12:14:31;;;;;;;1.39;1.20;;;;;;;20.51;43.03;101090.34;;;;-57
2021/03/16 12:17:31;;;;;;;1.66;1.30;;;;;;;20.50;43.00;101089.28;;;;-53
2021/03/16 12:20:31;;;;;;;2.00;1.25;;;;;;;20.50;43.03;101088.03;;;;-52
2021/03/16 12:23:31;;;;;;;1.81;1.27;;;;;;;20.52;42.97;101079.43;;;;-53
2021/03/16 12:26:31;;;;;;;2.05;1.31;;;;;;;20.53;42.95;101082.55;;;;-52
2021/03/16 12:29:31;;;;;;;1.43;1.21;;;;;;;20.52;43.02;101075.36;;;;-51
2021/03/16 12:32:31;;;;;;;2.82;1.27;;;;;;;20.53;43.03;101076.44;;;;-47
2021/03/16 12:35:31;;;;;;;1.63;1.19;;;;;;;20.59;43.08;101070.36;;;;-51
2021/03/16 12:38:31;;;;;;;1.87;1.30;;;;;;;20.62;43.30;101071.03;;;;-52
2021/03/16 12:41:31;;;;;;;2.49;1.19;;;;;;;20.65;43.28;101068.45;;;;-54
2021/03/16 12:44:31;;;;;;;1.62;1.23;;;;;;;20.66;43.37;101065.38;;;;-61
2021/03/16 12:47:31;;;;;;;1.37;1.20;;;;;;;20.66;43.42;101063.83;;;;-58
2021/03/16 12:50:31;;;;;;;1.29;1.11;;;;;;;20.71;43.49;101058.09;;;;-51
2021/03/16 12:53:31;;;;;;;2.04;1.10;;;;;;;20.69;43.47;101056.92;;;;-57
2021/03/16 12:56:31;;;;;;;1.31;1.09;;;;;;;20.73;43.41;101058.22;;;;-57
2021/03/16 12:59:31;;;;;;;1.57;1.20;;;;;;;20.75;43.50;101055.88;;;;-55
2021/03/16 13:02:31;;;;;;;3.29;1.29;;;;;;;20.76;43.49;101048.38;;;;-64
2021/03/16 13:05:31;;;;;;;1.84;1.30;;;;;;;20.77;43.41;101046.21;;;;-57
2021/03/16 13:08:31;;;;;;;1.27;1.15;;;;;;;20.79;43.58;101038.66;;;;-54
2021/03/16 13:11:31;;;;;;;1.23;1.13;;;;;;;20.82;43.47;101031.50;;;;-55
2021/03/16 13:14:31;;;;;;;1.70;1.26;;;;;;;20.84;43.50;101028.59;;;;-55
2021/03/16 13:17:31;;;;;;;3.28;1.20;;;;;;;20.84;43.56;101030.80;;;;-52
2021/03/16 13:20:31;;;;;;;1.03;1.03;;;;;;;20.85;43.65;101033.31;;;;-52
2021/03/16 13:23:31;;;;;;;1.20;1.10;;;;;;;20.86;43.62;101026.17;;;;-61
2021/03/16 13:26:31;;;;;;;1.39;1.20;;;;;;;20.90;43.52;101026.86;;;;-55
2021/03/16 13:29:31;;;;;;;1.51;1.07;;;;;;;20.91;43.52;101023.03;;;;-61
2021/03/16 13:32:31;;;;;;;1.29;1.11;;;;;;;20.94;43.63;101022.34;;;;-61
2021/03/16 13:35:31;;;;;;;1.21;1.10;;;;;;;20.95;43.52;101015.41;;;;-59
2021/03/16 13:38:31;;;;;;;1.33;1.16;;;;;;;20.99;43.52;101012.92;;;;-62
2021/03/16 13:41:31;;;;;;;1.26;1.16;;;;;;;21.00;43.51;101018.73;;;;-60
2021/03/16 13:44:31;;;;;;;1.31;1.05;;;;;;;20.99;43.50;101010.88;;;;-64
2021/03/16 13:47:31;;;;;;;1.38;1.19;;;;;;;20.98;43.52;101008.20;;;;-58
2021/03/16 13:50:31;;;;;;;1.25;1.10;;;;;;;20.98;43.44;101005.67;;;;-55
2021/03/16 13:53:31;;;;;;;1.15;1.00;;;;;;;20.95;43.21;101003.42;;;;-57
2021/03/16 13:56:31;;;;;;;1.61;1.20;;;;;;;20.94;43.13;101006.05;;;;-57
2021/03/16 13:59:31;;;;;;;1.20;1.10;;;;;;;20.93;43.14;101001.21;;;;-58
2021/03/16 14:02:31;;;;;;;1.35;1.23;;;;;;;20.94;43.21;101004.82;;;;-58
2021/03/16 14:05:31;;;;;;;1.01;0.98;;;;;;;20.99;43.20;101003.63;;;;-53
2021/03/16 14:08:31;;;;;;;3.22;1.19;;;;;;;21.00;43.19;101002.41;;;;-60
2021/03/16 14:11:31;;;;;;;1.66;1.22;;;;;;;21.00;43.25;101004.84;;;;-58
2021/03/16 14:14:31;;;;;;;2.44;1.10;;;;;;;21.01;43.31;101010.09;;;;-60
2021/03/16 14:17:32;;;;;;;1.20;1.05;;;;;;;21.02;43.33;101010.59;;;;-65
2021/03/16 14:20:32;;;;;;;1.24;1.09;;;;;;;21.04;43.34;101009.45;;;;-60
2021/03/16 14:23:31;;;;;;;1.03;1.00;;;;;;;21.08;43.30;101012.91;;;;-57
2021/03/16 14:26:31;;;;;;;1.35;1.13;;;;;;;21.09;43.45;101009.19;;;;-53
2021/03/16 14:29:31;;;;;;;1.58;1.23;;;;;;;21.10;43.41;101008.93;;;;-62
2021/03/16 14:32:31;;;;;;;1.43;1.11;;;;;;;21.09;43.38;101009.91;;;;-54
2021/03/16 14:35:31;;;;;;;1.37;1.20;;;;;;;21.13;43.40;101013.63;;;;-54
2021/03/16 14:38:31;;;;;;;2.51;1.20;;;;;;;21.13;43.41;101014.84;;;;-55
2021/03/16 14:41:31;;;;;;;2.14;1.10;;;;;;;21.12;43.45;101009.76;;;;-60
2021/03/16 14:44:31;;;;;;;1.61;1.14;;;;;;;21.11;43.54;101010.02;;;;-59
2021/03/16 14:47:31;;;;;;;1.56;1.04;;;;;;;21.09;43.48;101009.83;;;;-51
2021/03/16 14:50:31;;;;;;;1.87;1.00;;;;;;;21.12;43.33;101012.94;;;;-57
2021/03/16 14:53:31;;;;;;;1.48;1.07;;;;;;;21.12;43.61;101016.03;;;;-60
2021/03/16 14:56:31;;;;;;;1.19;1.09;;;;;;;21.11;43.67;101007.89;;;;-59
2021/03/16 14:59:31;;;;;;;2.08;1.23;;;;;;;21.11;43.62;101004.63;;;;-58
2021/03/16 15:02:31;;;;;;;3.45;1.17;;;;;;;21.13;43.54;101004.98;;;;-53
2021/03/16 15:05:31;;;;;;;1.22;1.11;;;;;;;21.13;43.56;101002.13;;;;-50
2021/03/16 15:08:31;;;;;;;1.25;1.10;;;;;;;21.14;43.57;100998.69;;;;-51
2021/03/16 15:11:31;;;;;;;2.07;1.10;;;;;;;21.15;43.60;101004.02;;;;-51
2021/03/16 15:14:31;;;;;;;2.17;1.09;;;;;;;21.13;43.67;101001.96;;;;-53
2021/03/16 15:17:31;;;;;;;1.02;1.01;;;;;;;21.14;43.50;101005.30;;;;-52
2021/03/16 15:20:31;;;;;;;1.21;1.11;;;;;;;21.15;43.49;101007.69;;;;-52
2021/03/16 15:23:31;;;;;;;1.37;1.04;;;;;;;21.18;43.59;101005.17;;;;-50
2021/03/16 15:26:31;;;;;;;3.46;1.10;;;;;;;21.17;43.59;101005.50;;;;-56
2021/03/16 15:29:31;;;;;;;1.35;1.15;;;;;;;21.19;43.52;101005.35;;;;-51
2021/03/16 15:32:31;;;;;;;1.87;1.07;;;;;;;21.22;43.48;101005.94;;;;-58
2021/03/16 15:35:31;;;;;;;1.19;1.07;;;;;;;21.23;43.28;101005.20;;;;-48
2021/03/16 15:38:31;;;;;;;1.27;1.17;;;;;;;21.20;43.10;101005.84;;;;-48
2021/03/16 15:41:31;;;;;;;1.31;1.15;;;;;;;21.17;43.07;101004.93;;;;-48
2021/03/16 15:44:31;;;;;;;1.58;1.11;;;;;;;21.15;43.04;101001.66;;;;-48
2021/03/16 15:47:31;;;;;;;1.18;1.03;;;;;;;21.14;42.97;100996.66;;;;-48
2021/03/16 15:50:34;;;;;;;1.45;1.11;;;;;;;21.13;43.00;100996.34;;;;-48
2021/03/16 15:53:31;;;;;;;1.10;1.00;;;;;;;21.11;42.96;100996.98;;;;-48
2021/03/16 15:56:31;;;;;;;1.19;1.09;;;;;;;21.09;42.95;100990.92;;;;-48
2021/03/16 15:59:31;;;;;;;1.30;1.10;;;;;;;21.09;42.97;100990.84;;;;-48
2021/03/16 16:02:31;;;;;;;1.16;1.05;;;;;;;21.06;42.99;100998.63;;;;-59
2021/03/16 16:05:31;;;;;;;2.67;1.21;;;;;;;21.03;42.86;100991.52;;;;-53
2021/03/16 16:08:31;;;;;;;4.80;1.30;;;;;;;21.07;43.16;100993.27;;;;-51
2021/03/16 16:11:31;;;;;;;2.56;1.18;;;;;;;21.09;43.12;100991.49;;;;-52
2021/03/16 16:14:31;;;;;;;2.93;1.20;;;;;;;21.13;43.15;100986.97;;;;-50
2021/03/16 16:17:31;;;;;;;2.26;1.19;;;;;;;21.12;43.01;100983.93;;;;-50
2021/03/16 16:20:31;;;;;;;1.84;1.10;;;;;;;21.09;42.89;100981.71;;;;-50
2021/03/16 16:23:31;;;;;;;2.43;1.09;;;;;;;21.07;42.88;100983.57;;;;-50
2021/03/16 16:26:31;;;;;;;1.85;1.03;;;;;;;21.06;42.90;100980.94;;;;-50
2021/03/16 16:29:31;;;;;;;2.51;1.20;;;;;;;21.05;42.86;100979.72;;;;-50
2021/03/16 16:32:31;;;;;;;2.28;1.19;;;;;;;21.04;42.78;100980.63;;;;-50
2021/03/16 16:35:31;;;;;;;3.17;1.15;;;;;;;21.04;42.85;100981.25;;;;-50
2021/03/16 16:38:31;;;;;;;1.65;1.10;;;;;;;21.03;42.85;100983.38;;;;-50
2021/03/16 16:41:31;;;;;;;1.63;1.20;;;;;;;21.02;42.82;100980.83;;;;-50
2021/03/16 16:44:31;;;;;;;1.39;1.02;;;;;;;21.02;42.79;100978.79;;;;-50